Decoded Metar for KHBI (ASHEBORO MUNI in NC, USA) (IATA:HBI) | Meteo·Mobile Aviation Weather
aviador You're here:

KHBI Decoded Metar

ASHEBORO MUNI in NC, USA
Report Time2018-10-20 12:15:00
UTC Time2018-10-20 12:24:04
Flight Rules vfr VFR
Wind210° at 06 kt
W.Decomp.*RWY 21: 5.9 kt HW 0.8 kt RCW
W.Rank210° ranks 1
Current wind is below 210° avg. (6.4)
Visibility9999 m
Phenomena:N/A
Clouds:Overcast 090 Hf
Expected CloudBase > 400 ft AGL from Temp-Dew spread
Ceiling9,000 ft
Temp16°C (ISA +2)
Dew Point15°C (94% RH)
AAT15.5°C
QNH1014 hPa
Density Alt1,145 ft
Elevation673 ft
Report Wrong Elevation
Raw Report
METAR KHBI 201215Z AUTO 21006KT 10SM OVC090 16/15 A2993 RMK AO2 T01610152=

Extra information for KHBI:More info

Metar Taf Metar & Taf Last 4 Metars F.Rules Stats Wind Profile Meteogram Temp Stats Airport Information Weather charts Add Link Nearby VenuesMetar ALERT Operation Metar Decoded Social comments

AIRNAV info for KHBI